Time;durP1;ratioP1;P1;durP2;ratioP2;P2;SDS_P1;SDS_P2;PMS_P1;PMS_P2;Temp;Humidity;BMP_temperature;BMP_pressure;BME280_temperature;BME280_humidity;BME280_pressure;Samples;Min_cycle;Max_cycle;Signal;HPM_P1;HPM_P2
2023/11/03 00:01:31;;;;;;;4.18;0.70;;;10.40;78.40;;;;;;9161039;19;20028;-77
2023/11/03 00:04:38;;;;;;;2.45;1.10;;;10.20;78.70;;;;;;9160215;19;20133;-75
2023/11/03 00:07:48;;;;;;;0.70;0.50;;;10.20;78.70;;;;;;9161088;19;20582;-74
2023/11/03 00:10:54;;;;;;;2.80;0.68;;;10.20;78.80;;;;;;9164498;19;20107;-75
2023/11/03 00:14:03;;;;;;;4.80;0.70;;;10.30;79.10;;;;;;9166050;19;20014;-74
2023/11/03 00:17:09;;;;;;;2.70;0.50;;;10.10;79.20;;;;;;9168779;19;20014;-78
2023/11/03 00:20:18;;;;;;;1.95;0.43;;;10.10;79.10;;;;;;9167641;19;20010;-77
2023/11/03 00:23:26;;;;;;;1.27;0.43;;;10.10;79.70;;;;;;9165294;19;20383;-76
2023/11/03 00:26:34;;;;;;;1.13;0.70;;;10.00;79.20;;;;;;9166228;19;20098;-77
2023/11/03 00:29:40;;;;;;;1.33;0.75;;;10.00;79.40;;;;;;9163861;19;20010;-77
2023/11/03 00:32:48;;;;;;;1.95;0.70;;;10.00;79.40;;;;;;9164270;19;20014;-74
2023/11/03 00:35:53;;;;;;;6.82;1.08;;;10.00;79.40;;;;;;9163622;19;20376;-77
2023/11/03 00:39:04;;;;;;;3.22;0.65;;;9.90;79.50;;;;;;9164448;19;20025;-75
2023/11/03 00:42:09;;;;;;;2.10;0.57;;;9.90;79.60;;;;;;9163102;19;20650;-77
2023/11/03 00:45:17;;;;;;;0.80;0.60;;;9.90;79.70;;;;;;9162326;19;20025;-77
2023/11/03 00:48:26;;;;;;;2.42;0.77;;;9.90;79.90;;;;;;9162803;19;20029;-76
2023/11/03 00:51:34;;;;;;;1.17;0.68;;;9.90;80.00;;;;;;9165360;19;20018;-76
2023/11/03 00:54:42;;;;;;;1.02;0.60;;;9.90;80.00;;;;;;9158728;19;20015;-75
2023/11/03 00:57:49;;;;;;;5.03;1.10;;;9.90;80.20;;;;;;9162407;19;20010;-75
2023/11/03 01:00:55;;;;;;;1.20;0.40;;;9.90;80.20;;;;;;9164270;19;20018;-76
2023/11/03 01:04:03;;;;;;;1.75;0.70;;;9.90;80.20;;;;;;9161367;19;20364;-78
2023/11/03 01:07:08;;;;;;;0.55;0.40;;;9.90;80.20;;;;;;9164518;19;20026;-77
2023/11/03 01:10:20;;;;;;;3.65;0.70;;;9.90;80.30;;;;;;9158434;19;20018;-77
2023/11/03 01:13:27;;;;;;;2.90;0.77;;;9.90;80.40;;;;;;9163968;19;20078;-76
2023/11/03 01:16:36;;;;;;;2.78;0.63;;;9.90;80.90;;;;;;9162004;19;20787;-75
2023/11/03 01:19:42;;;;;;;0.45;0.45;;;9.90;80.90;;;;;;9161208;19;20072;-77
2023/11/03 01:22:50;;;;;;;4.85;0.73;;;9.90;81.10;;;;;;9160031;19;20010;-75
2023/11/03 01:25:58;;;;;;;0.57;0.57;;;9.90;82.00;;;;;;9160925;19;20021;-76
2023/11/03 01:29:09;;;;;;;2.30;0.60;;;9.00;79.90;;;;;;9160782;19;20066;-75
2023/11/03 01:32:15;;;;;;;2.63;0.70;;;9.90;80.50;;;;;;9161889;19;20023;-73
2023/11/03 01:35:24;;;;;;;1.42;0.60;;;9.90;80.60;;;;;;9162386;19;20096;-75
2023/11/03 01:38:30;;;;;;;2.15;0.55;;;9.90;80.50;;;;;;9164788;19;20022;-75
2023/11/03 01:41:40;;;;;;;4.55;0.73;;;9.90;81.20;;;;;;9160449;19;20021;-75
2023/11/03 01:44:46;;;;;;;3.03;0.90;;;9.90;80.70;;;;;;9163502;19;20019;-75
2023/11/03 01:47:53;;;;;;;0.90;0.47;;;9.90;80.60;;;;;;9161812;19;20025;-74
2023/11/03 01:51:02;;;;;;;1.27;0.60;;;9.90;80.60;;;;;;9161148;19;20033;-74
2023/11/03 01:54:10;;;;;;;2.33;0.70;;;9.90;80.70;;;;;;9164266;19;20011;-76
2023/11/03 01:57:20;;;;;;;0.98;0.82;;;9.90;80.70;;;;;;9163023;19;20019;-75
2023/11/03 02:00:28;;;;;;;1.30;0.60;;;9.90;80.90;;;;;;9157461;19;20014;-74
2023/11/03 02:03:33;;;;;;;3.55;0.63;;;9.90;81.20;;;;;;9159517;19;20048;-73
2023/11/03 02:06:41;;;;;;;3.65;0.60;;;9.90;81.90;;;;;;9164382;19;20102;-75
2023/11/03 02:09:47;;;;;;;5.68;0.80;;;10.00;81.40;;;;;;9166955;19;20022;-74
2023/11/03 02:12:57;;;;;;;4.82;1.08;;;9.90;80.80;;;;;;9169572;19;20020;-75
2023/11/03 02:16:02;;;;;;;1.60;0.68;;;10.00;80.90;;;;;;9170251;19;20017;-75
2023/11/03 02:19:12;;;;;;;1.05;0.60;;;9.90;80.90;;;;;;9168856;19;20570;-72
2023/11/03 02:22:21;;;;;;;2.00;0.70;;;9.90;81.00;;;;;;9171227;19;20146;-75
2023/11/03 02:25:31;;;;;;;5.15;1.10;;;10.00;81.80;;;;;;9171207;19;20384;-76
2023/11/03 02:28:37;;;;;;;3.08;0.75;;;10.00;81.10;;;;;;9169136;19;20018;-74
2023/11/03 02:31:46;;;;;;;1.42;0.50;;;10.00;80.90;;;;;;9167856;19;20017;-76
2023/11/03 02:34:51;;;;;;;2.40;0.57;;;10.00;81.00;;;;;;9169487;19;20018;-75
2023/11/03 02:37:59;;;;;;;1.10;0.35;;;10.00;81.00;;;;;;9168703;19;20017;-76
2023/11/03 02:41:08;;;;;;;3.47;0.70;;;10.00;81.00;;;;;;9169667;19;20494;-76
2023/11/03 02:44:15;;;;;;;0.55;0.50;;;10.00;81.00;;;;;;9170246;19;20495;-75
2023/11/03 02:47:21;;;;;;;2.65;0.45;;;10.10;81.10;;;;;;9169019;19;20061;-75
2023/11/03 02:50:28;;;;;;;4.75;0.80;;;10.10;81.10;;;;;;9166743;19;20022;-74
2023/11/03 02:53:33;;;;;;;1.73;0.80;;;10.10;81.10;;;;;;9168507;19;20034;-75
2023/11/03 02:56:43;;;;;;;6.57;1.00;;;10.10;81.10;;;;;;9161653;19;20498;-75
2023/11/03 02:59:49;;;;;;;7.85;0.30;;;10.10;81.20;;;;;;9166878;19;20100;-73
2023/11/03 03:02:56;;;;;;;1.45;0.65;;;10.10;81.10;;;;;;9167373;19;20025;-76
2023/11/03 03:06:02;;;;;;;2.13;0.65;;;10.10;81.10;;;;;;9170317;19;20022;-75
2023/11/03 03:09:10;;;;;;;2.92;0.52;;;10.10;81.10;;;;;;9169129;19;20011;-74
2023/11/03 03:12:18;;;;;;;2.28;0.55;;;10.10;81.10;;;;;;9169402;19;20010;-75
2023/11/03 03:15:26;;;;;;;3.05;0.65;;;10.10;81.20;;;;;;9169406;19;20046;-75
2023/11/03 03:18:31;;;;;;;15.57;0.75;;;10.10;81.00;;;;;;9168009;19;20022;-74
2023/11/03 03:21:41;;;;;;;5.30;0.60;;;10.10;81.10;;;;;;9167145;19;20018;-76
2023/11/03 03:24:46;;;;;;;4.60;0.80;;;10.20;81.10;;;;;;9169263;19;20420;-75
2023/11/03 03:27:56;;;;;;;3.33;0.80;;;10.10;81.10;;;;;;9169356;19;20384;-73
2023/11/03 03:31:02;;;;;;;3.55;0.70;;;10.20;81.20;;;;;;9163783;19;20367;-74
2023/11/03 03:34:10;;;;;;;1.33;0.70;;;10.20;81.10;;;;;;9168864;19;20106;-74
2023/11/03 03:37:15;;;;;;;4.15;0.82;;;10.20;81.10;;;;;;9169175;19;20390;-74
2023/11/03 03:40:23;;;;;;;1.90;0.63;;;10.20;81.20;;;;;;9166875;19;20019;-74
2023/11/03 03:43:31;;;;;;;5.53;0.93;;;10.20;81.10;;;;;;9168167;19;20331;-74
2023/11/03 03:46:41;;;;;;;2.22;0.55;;;10.20;81.10;;;;;;9167616;19;20475;-74
2023/11/03 03:49:46;;;;;;;2.10;1.00;;;10.20;81.10;;;;;;9167564;19;20022;-74
2023/11/03 03:52:54;;;;;;;3.50;0.73;;;10.20;81.10;;;;;;9163708;19;20015;-75
2023/11/03 03:56:00;;;;;;;12.20;1.70;;;10.20;81.10;;;;;;9163931;19;20364;-75
2023/11/03 03:59:10;;;;;;;2.28;0.90;;;10.20;81.10;;;;;;9167333;19;20026;-74
2023/11/03 04:02:15;;;;;;;2.55;0.47;;;10.20;81.40;;;;;;9167489;19;20117;-74
2023/11/03 04:05:25;;;;;;;3.80;0.73;;;10.20;81.20;;;;;;9166392;19;20026;-74
2023/11/03 04:08:30;;;;;;;3.50;0.50;;;10.20;81.20;;;;;;9167962;19;20017;-73
2023/11/03 04:11:38;;;;;;;8.48;1.40;;;10.30;81.30;;;;;;9164195;19;20010;-75
2023/11/03 04:14:46;;;;;;;3.10;0.70;;;10.30;81.20;;;;;;9165139;19;20081;-73
2023/11/03 04:17:55;;;;;;;3.83;0.82;;;10.30;81.20;;;;;;9166240;19;20030;-75
2023/11/03 04:21:01;;;;;;;2.10;0.50;;;10.30;81.20;;;;;;9164552;19;20061;-74
2023/11/03 04:24:10;;;;;;;3.22;0.90;;;10.30;81.20;;;;;;9166934;19;20411;-73
2023/11/03 04:27:16;;;;;;;8.73;1.55;;;10.30;81.20;;;;;;9166702;19;20524;-74
2023/11/03 04:30:26;;;;;;;4.80;0.73;;;10.30;81.20;;;;;;9165266;19;20042;-72
2023/11/03 04:33:32;;;;;;;0.93;0.90;;;10.30;81.20;;;;;;9166317;19;20018;-73
2023/11/03 04:36:40;;;;;;;3.72;1.20;;;10.30;81.20;;;;;;9165215;19;20014;-73
2023/11/03 04:39:45;;;;;;;2.33;0.90;;;10.30;81.20;;;;;;9166084;19;20480;-73
2023/11/03 04:42:52;;;;;;;5.07;0.88;;;10.30;81.10;;;;;;9165831;19;20109;-74
2023/11/03 04:46:00;;;;;;;1.90;0.50;;;10.30;81.10;;;;;;9165600;19;20014;-73
2023/11/03 04:49:08;;;;;;;5.18;0.98;;;10.30;81.20;;;;;;9164144;19;20773;-72
2023/11/03 04:52:13;;;;;;;2.67;1.08;;;10.30;81.20;;;;;;9163613;19;20018;-74
2023/11/03 04:55:21;;;;;;;2.42;0.95;;;10.30;81.20;;;;;;9161807;19;20014;-74
2023/11/03 04:58:27;;;;;;;3.28;0.77;;;;;;;;;;9163545;19;20019;-72
2023/11/03 05:01:37;;;;;;;3.70;1.00;;;10.30;80.60;;;;;;9165633;19;20034;-73
2023/11/03 05:04:43;;;;;;;3.17;0.88;;;10.30;81.10;;;;;;9165924;19;20018;-73
2023/11/03 05:07:50;;;;;;;3.00;0.82;;;10.40;81.20;;;;;;9164931;19;20019;-73
2023/11/03 05:10:56;;;;;;;6.70;1.05;;;10.40;81.10;;;;;;9164416;19;20021;-73
2023/11/03 05:14:03;;;;;;;4.93;1.10;;;10.40;81.10;;;;;;9165045;19;20375;-73
2023/11/03 05:17:11;;;;;;;2.15;0.70;;;10.30;81.10;;;;;;9165220;19;20019;-73
2023/11/03 05:20:19;;;;;;;5.68;0.90;;;10.40;81.10;;;;;;9163295;19;20011;-74
2023/11/03 05:23:25;;;;;;;12.57;1.20;;;10.40;81.10;;;;;;9162749;19;20491;-75
2023/11/03 05:26:32;;;;;;;3.78;1.00;;;10.40;81.10;;;;;;9162215;19;20058;-73
2023/11/03 05:29:37;;;;;;;1.30;0.77;;;10.40;81.20;;;;;;9162556;19;20349;-73
2023/11/03 05:32:47;;;;;;;4.03;0.90;;;10.40;81.20;;;;;;9160882;19;20022;-73
2023/11/03 05:35:53;;;;;;;2.08;0.65;;;10.40;81.20;;;;;;9163019;19;20123;-74
2023/11/03 05:39:00;;;;;;;7.68;2.33;;;10.40;81.10;;;;;;9163235;19;20022;-72
2023/11/03 05:42:07;;;;;;;5.22;1.05;;;10.40;81.10;;;;;;9166192;19;20029;-72
2023/11/03 05:45:14;;;;;;;3.17;0.90;;;10.30;81.10;;;;;;9169012;19;20880;-73
2023/11/03 05:48:22;;;;;;;5.47;1.20;;;10.30;81.10;;;;;;9173623;19;20026;-73
2023/11/03 05:51:30;;;;;;;5.15;1.45;;;10.30;81.10;;;;;;9169681;19;20011;-73
2023/11/03 05:54:35;;;;;;;3.67;1.23;;;10.30;81.10;;;;;;9165089;19;20706;-73
2023/11/03 05:57:42;;;;;;;2.50;0.50;;;10.30;81.10;;;;;;9173189;19;20022;-73
2023/11/03 06:00:48;;;;;;;3.92;1.17;;;10.30;81.10;;;;;;9171129;19;20011;-73
2023/11/03 06:03:58;;;;;;;2.28;0.80;;;10.30;81.10;;;;;;9168794;19;20018;-73
2023/11/03 06:07:07;;;;;;;3.80;1.08;;;10.30;81.20;;;;;;9169856;19;20026;-73
2023/11/03 06:10:16;;;;;;;4.43;0.90;;;10.30;81.20;;;;;;9169800;19;20018;-73
2023/11/03 06:13:21;;;;;;;3.67;1.15;;;10.30;81.20;;;;;;9169845;19;20014;-73
2023/11/03 06:16:29;;;;;;;2.63;0.85;;;10.30;81.20;;;;;;9167086;19;20018;-73
2023/11/03 06:19:37;;;;;;;8.07;1.23;;;10.30;81.20;;;;;;9170247;19;20037;-73
2023/11/03 06:22:48;;;;;;;3.13;0.70;;;10.30;81.30;;;;;;9168390;19;20014;-73
2023/11/03 06:25:53;;;;;;;5.13;1.13;;;10.30;81.30;;;;;;9166384;19;20373;-73
2023/11/03 06:29:01;;;;;;;4.75;1.00;;;10.30;81.30;;;;;;9166006;19;20018;-73
2023/11/03 06:32:07;;;;;;;6.82;1.42;;;10.30;81.40;;;;;;9168889;19;20031;-73
2023/11/03 06:35:18;;;;;;;5.57;1.70;;;10.30;81.40;;;;;;9170183;19;20015;-73
2023/11/03 06:38:23;;;;;;;7.90;1.02;;;10.30;81.40;;;;;;9170828;19;20018;-73
2023/11/03 06:41:31;;;;;;;9.68;1.65;;;10.30;81.40;;;;;;9168157;19;20792;-72
2023/11/03 06:44:36;;;;;;;6.70;1.42;;;10.30;81.40;;;;;;9169557;19;20462;-73
2023/11/03 06:47:44;;;;;;;6.65;1.30;;;10.30;81.40;;;;;;9169693;19;21284;-72
2023/11/03 06:50:52;;;;;;;4.55;1.23;;;10.30;81.50;;;;;;9170968;19;20678;-73
2023/11/03 06:54:00;;;;;;;9.82;1.55;;;10.30;81.60;;;;;;9166259;19;20021;-73
2023/11/03 06:57:06;;;;;;;4.75;1.42;;;10.30;81.50;;;;;;9165398;19;20014;-73
2023/11/03 07:00:16;;;;;;;2.70;1.17;;;10.30;82.10;;;;;;9163757;19;20780;-73
2023/11/03 07:03:22;;;;;;;7.30;1.58;;;10.30;81.60;;;;;;9167067;19;20022;-73
2023/11/03 07:06:33;;;;;;;5.05;1.23;;;10.30;81.50;;;;;;9167534;19;20026;-73
2023/11/03 07:09:42;;;;;;;8.45;1.23;;;10.30;81.60;;;;;;9167876;19;20028;-73
2023/11/03 07:12:49;;;;;;;10.13;1.60;;;10.30;81.50;;;;;;9165314;19;20018;-73
2023/11/03 07:15:55;;;;;;;9.98;2.00;;;10.40;81.60;;;;;;9169108;19;20014;-73
2023/11/03 07:19:03;;;;;;;5.75;1.65;;;10.40;81.60;;;;;;9170135;19;20476;-73
2023/11/03 07:22:11;;;;;;;6.45;1.30;;;10.40;81.60;;;;;;9166531;19;20490;-74
2023/11/03 07:25:19;;;;;;;3.80;1.23;;;10.40;81.70;;;;;;9166533;19;20018;-73
2023/11/03 07:28:25;;;;;;;4.07;1.27;;;10.40;81.60;;;;;;9167096;19;20035;-73
2023/11/03 07:31:36;;;;;;;8.30;1.45;;;10.50;81.70;;;;;;9169200;19;20018;-74
2023/11/03 07:34:41;;;;;;;10.43;1.50;;;10.50;81.70;;;;;;9167992;19;20014;-73
2023/11/03 07:37:54;;;;;;;8.57;1.80;;;10.50;81.70;;;;;;9166755;19;20025;-73
2023/11/03 07:40:59;;;;;;;6.25;1.50;;;10.50;81.70;;;;;;9169008;19;20018;-73
2023/11/03 07:44:08;;;;;;;5.65;1.15;;;10.50;81.80;;;;;;9168137;19;20011;-72
2023/11/03 07:47:16;;;;;;;9.27;1.67;;;10.60;81.80;;;;;;9168989;19;20014;-73
2023/11/03 07:50:24;;;;;;;6.38;1.95;;;10.60;81.70;;;;;;9169300;19;20014;-72
2023/11/03 07:53:34;;;;;;;8.00;2.15;;;10.70;81.70;;;;;;9165351;19;20024;-72
2023/11/03 07:56:41;;;;;;;7.10;1.58;;;10.70;81.70;;;;;;9163530;19;20380;-72
2023/11/03 07:59:47;;;;;;;5.80;1.25;;;10.70;81.70;;;;;;9166113;19;20658;-72
2023/11/03 08:02:55;;;;;;;6.63;2.13;;;10.70;81.60;;;;;;9166754;19;20018;-73
2023/11/03 08:06:01;;;;;;;10.05;1.25;;;10.70;81.60;;;;;;9166405;19;20575;-73
2023/11/03 08:09:11;;;;;;;3.78;1.00;;;10.70;81.60;;;;;;9167041;19;20010;-74
2023/11/03 08:12:18;;;;;;;7.97;1.80;;;10.70;81.60;;;;;;9164374;19;20713;-71
2023/11/03 08:15:26;;;;;;;7.78;1.77;;;10.80;81.60;;;;;;9167855;19;20025;-74
2023/11/03 08:18:31;;;;;;;8.60;1.58;;;10.80;81.60;;;;;;9167338;19;20014;-73
2023/11/03 08:21:41;;;;;;;6.03;1.30;;;10.80;81.70;;;;;;9165326;19;20018;-73
2023/11/03 08:24:52;;;;;;;6.68;1.70;;;10.80;81.60;;;;;;9166898;19;20498;-73
2023/11/03 08:28:01;;;;;;;9.45;1.55;;;10.80;81.80;;;;;;9166516;19;20027;-73
2023/11/03 08:31:06;;;;;;;12.00;2.45;;;10.80;81.60;;;;;;9166538;19;20479;-72
2023/11/03 08:34:14;;;;;;;7.47;2.22;;;10.90;81.70;;;;;;9161439;19;20712;-73
2023/11/03 08:37:21;;;;;;;7.55;1.65;;;10.80;81.60;;;;;;9166907;19;20021;-72
2023/11/03 08:40:34;;;;;;;10.38;2.13;;;10.90;81.70;;;;;;9166177;19;20021;-73
2023/11/03 08:43:45;;;;;;;8.25;2.15;;;10.90;81.70;;;;;;9164052;19;20078;-73
2023/11/03 08:46:52;;;;;;;3.60;1.17;;;10.90;81.70;;;;;;9164807;19;20014;-75
2023/11/03 08:49:58;;;;;;;10.73;1.77;;;10.90;81.70;;;;;;9165834;19;20019;-72
2023/11/03 08:53:05;;;;;;;12.68;2.25;;;10.90;81.70;;;;;;9161204;19;20026;-74
2023/11/03 08:56:15;;;;;;;13.02;1.92;;;11.00;81.70;;;;;;9160442;19;20308;-73
2023/11/03 08:59:22;;;;;;;10.52;1.80;;;11.00;81.80;;;;;;9163330;19;20006;-72
2023/11/03 09:02:28;;;;;;;11.98;2.63;;;11.00;81.80;;;;;;9165791;19;20014;-73
2023/11/03 09:05:35;;;;;;;10.15;1.83;;;11.10;81.80;;;;;;9164929;19;20022;-72
2023/11/03 09:08:40;;;;;;;8.32;1.83;;;11.10;81.80;;;;;;9161528;19;20033;-73
2023/11/03 09:11:51;;;;;;;4.80;1.42;;;11.10;81.80;;;;;;9160199;19;20086;-73
2023/11/03 09:14:56;;;;;;;11.52;2.67;;;11.20;81.80;;;;;;9160793;19;20018;-73
2023/11/03 09:18:05;;;;;;;5.88;1.73;;;11.20;81.80;;;;;;9162037;19;20018;-72
2023/11/03 09:21:11;;;;;;;14.57;3.80;;;11.20;81.80;;;;;;9164712;19;20056;-72
2023/11/03 09:24:18;;;;;;;6.15;1.30;;;11.30;81.90;;;;;;9160113;19;20026;-72
2023/11/03 09:27:26;;;;;;;10.10;2.30;;;11.30;81.90;;;;;;9162190;19;20019;-73
2023/11/03 09:30:34;;;;;;;7.68;1.63;;;11.30;81.80;;;;;;9161097;19;20345;-71
2023/11/03 09:33:42;;;;;;;15.07;1.60;;;11.40;81.70;;;;;;9161782;19;20014;-72
2023/11/03 09:36:50;;;;;;;14.02;2.10;;;11.40;81.70;;;;;;9160784;19;20353;-73
2023/11/03 09:39:57;;;;;;;13.95;1.88;;;11.40;81.70;;;;;;9163724;19;20347;-74
2023/11/03 09:43:08;;;;;;;7.57;2.10;;;11.40;81.70;;;;;;9164093;19;20651;-71
2023/11/03 09:46:14;;;;;;;14.68;3.03;;;11.50;81.60;;;;;;9162202;19;20022;-73
2023/11/03 09:49:22;;;;;;;12.60;2.38;;;11.50;81.60;;;;;;9165033;19;20025;-73
2023/11/03 09:52:32;;;;;;;14.10;2.22;;;11.50;81.60;;;;;;9164365;19;20015;-73
2023/11/03 09:55:41;;;;;;;16.92;3.13;;;11.50;81.60;;;;;;9159469;19;20443;-72
2023/11/03 09:58:49;;;;;;;12.35;1.90;;;11.60;81.70;;;;;;9159069;19;20031;-72
2023/11/03 10:01:57;;;;;;;15.80;1.55;;;11.60;81.70;;;;;;9153262;19;20033;-73
2023/11/03 10:05:03;;;;;;;12.68;2.28;;;11.60;81.80;;;;;;9155106;19;20056;-72
2023/11/03 10:08:14;;;;;;;14.02;2.17;;;11.60;81.70;;;;;;9160820;19;20480;-73
2023/11/03 10:11:20;;;;;;;16.55;3.13;;;11.70;81.70;;;;;;9161364;19;20929;-72
2023/11/03 10:14:30;;;;;;;6.20;1.50;;;11.80;81.80;;;;;;9159483;19;20018;-73
2023/11/03 10:17:35;;;;;;;10.75;1.85;;;11.80;81.70;;;;;;9160351;19;20014;-72
2023/11/03 10:20:44;;;;;;;12.43;2.70;;;11.90;81.70;;;;;;9154690;19;20026;-72
2023/11/03 10:23:50;;;;;;;13.90;1.80;;;11.90;81.80;;;;;;9160754;19;20370;-73
2023/11/03 10:26:58;;;;;;;9.48;1.70;;;12.00;81.70;;;;;;9159830;19;20023;-72
2023/11/03 10:30:09;;;;;;;12.85;2.33;;;12.10;81.70;;;;;;9171760;19;20057;-71
2023/11/03 10:33:18;;;;;;;11.13;2.10;;;12.10;81.60;;;;;;9182765;19;20023;-73
2023/11/03 10:36:26;;;;;;;13.32;2.63;;;12.20;81.60;;;;;;9182387;19;20019;-71
2023/11/03 10:39:33;;;;;;;14.10;2.63;;;12.30;81.60;;;;;;9184077;19;20034;-72
2023/11/03 10:42:42;;;;;;;17.83;2.83;;;12.30;81.50;;;;;;9186322;19;20082;-73
2023/11/03 10:45:57;;;;;;;9.20;1.85;;;12.30;81.40;;;;;;9185324;19;20014;-68
2023/11/03 10:49:15;;;;;;;13.18;2.35;;;12.40;81.40;;;;;;9185616;19;20372;-68
2023/11/03 10:52:28;;;;;;;12.45;1.67;;;12.40;81.30;;;;;;9186020;19;20823;-69
2023/11/03 10:55:41;;;;;;;17.95;2.25;;;12.50;81.40;;;;;;9178153;19;20052;-68
2023/11/03 10:58:48;;;;;;;15.05;1.58;;;12.50;81.40;;;;;;9183049;19;20513;-68
2023/11/03 11:02:01;;;;;;;14.60;2.13;;;12.50;81.30;;;;;;9184977;19;20542;-68
2023/11/03 11:05:16;;;;;;;13.40;1.73;;;12.60;81.20;;;;;;9184360;19;20037;-68
2023/11/03 11:08:23;;;;;;;12.52;3.00;;;12.60;81.10;;;;;;9184558;19;20018;-68
2023/11/03 11:11:34;;;;;;;13.57;2.58;;;12.60;81.00;;;;;;9183997;19;20029;-69
2023/11/03 11:14:46;;;;;;;9.18;2.83;;;12.60;80.90;;;;;;9182802;19;20371;-68
2023/11/03 11:17:56;;;;;;;15.98;2.53;;;12.70;80.90;;;;;;9182047;19;20052;-67
2023/11/03 11:21:08;;;;;;;10.75;1.75;;;12.70;80.90;;;;;;9178454;19;20771;-67
2023/11/03 11:24:20;;;;;;;10.82;1.50;;;12.70;80.80;;;;;;9180516;19;20034;-67
2023/11/03 11:27:26;;;;;;;15.30;2.63;;;12.70;80.70;;;;;;9184076;19;20006;-68
2023/11/03 11:30:36;;;;;;;19.13;2.25;;;12.70;80.60;;;;;;9183745;19;20018;-68
2023/11/03 11:34:01;;;;;;;16.00;2.10;;;12.70;80.60;;;;;;9183119;19;20018;-68
2023/11/03 11:37:25;;;;;;;14.35;2.38;;;12.70;80.50;;;;;;9178709;19;20480;-67
2023/11/03 11:40:31;;;;;;;12.32;1.88;;;12.70;80.50;;;;;;9181515;19;20476;-67
2023/11/03 11:43:40;;;;;;;21.23;2.38;;;12.70;80.50;;;;;;9182520;19;20011;-69
2023/11/03 11:46:55;;;;;;;14.30;2.35;;;12.70;80.50;;;;;;9182050;19;20019;-69
2023/11/03 11:50:07;;;;;;;12.75;1.80;;;12.70;80.50;;;;;;9181800;19;20016;-69
2023/11/03 11:53:14;;;;;;;16.67;3.00;;;12.60;80.50;;;;;;9183490;19;20010;-68
2023/11/03 11:56:21;;;;;;;8.02;1.80;;;12.60;80.50;;;;;;9174031;19;20018;-68
2023/11/03 11:59:27;;;;;;;8.10;1.63;;;12.70;80.60;;;;;;9182669;19;20031;-71
2023/11/03 12:02:35;;;;;;;8.82;1.80;;;12.70;80.60;;;;;;9176884;19;20018;-71
2023/11/03 12:05:44;;;;;;;10.18;1.67;;;12.70;80.50;;;;;;9178874;19;20372;-72
2023/11/03 12:08:51;;;;;;;7.75;1.85;;;12.70;80.60;;;;;;9178811;19;20551;-72
2023/11/03 12:11:57;;;;;;;11.13;1.55;;;12.70;80.40;;;;;;9178374;19;20022;-72
2023/11/03 12:15:04;;;;;;;19.27;2.30;;;12.70;80.30;;;;;;9175511;19;20019;-72
2023/11/03 12:18:13;;;;;;;6.65;1.85;;;12.70;80.30;;;;;;9174634;19;20381;-71
2023/11/03 12:21:26;;;;;;;17.83;1.95;;;12.70;80.30;;;;;;9177561;19;20610;-71
2023/11/03 12:24:35;;;;;;;15.57;2.05;;;12.70;80.20;;;;;;9177361;19;20022;-70
2023/11/03 12:27:43;;;;;;;12.38;2.63;;;12.70;80.20;;;;;;9176512;19;20018;-71
2023/11/03 12:30:52;;;;;;;11.00;1.63;;;12.70;80.20;;;;;;9176543;19;20033;-72
2023/11/03 12:34:12;;;;;;;8.02;2.17;;;12.70;80.20;;;;;;9172660;19;20483;-72
2023/11/03 12:37:20;;;;;;;11.00;1.52;;;12.70;80.20;;;;;;9178794;19;20018;-73
2023/11/03 12:40:28;;;;;;;17.17;2.40;;;12.70;80.10;;;;;;9181047;19;20014;-71
2023/11/03 12:43:33;;;;;;;21.02;3.35;;;12.70;80.10;;;;;;9179876;19;20021;-71
2023/11/03 12:46:50;;;;;;;17.42;2.15;;;12.70;80.10;;;;;;9179168;19;20073;-71
2023/11/03 12:50:11;;;;;;;18.48;2.08;;;12.70;80.10;;;;;;9179452;19;20036;-69
2023/11/03 12:53:29;;;;;;;9.30;2.40;;;12.70;80.10;;;;;;9179252;19;20011;-74
2023/11/03 12:56:49;;;;;;;9.70;1.85;;;12.70;80.10;;;;;;9174521;19;20014;-73
2023/11/03 12:59:57;;;;;;;16.00;2.30;;;12.80;80.00;;;;;;9181113;19;20026;-72
2023/11/03 13:03:02;;;;;;;12.77;1.67;;;12.80;80.00;;;;;;9178149;19;20048;-65
2023/11/03 13:06:11;;;;;;;8.23;1.95;;;12.80;80.00;;;;;;9178439;19;20451;-64
2023/11/03 13:09:24;;;;;;;8.00;2.05;;;12.90;79.90;;;;;;9176113;19;20029;-65
2023/11/03 13:12:31;;;;;;;12.23;1.73;;;12.90;79.70;;;;;;9179604;19;20513;-64
2023/11/03 13:15:37;;;;;;;6.72;1.60;;;12.90;79.70;;;;;;9174468;19;20483;-66
2023/11/03 13:18:45;;;;;;;7.75;1.88;;;12.90;79.70;;;;;;9179716;19;20031;-66
2023/11/03 13:21:54;;;;;;;11.20;2.13;;;12.90;79.60;;;;;;9179528;19;20044;-65
2023/11/03 13:25:06;;;;;;;13.68;2.00;;;12.90;79.70;;;;;;9179629;19;20014;-64
2023/11/03 13:28:13;;;;;;;13.70;1.92;;;12.90;79.60;;;;;;9178518;19;20011;-72
2023/11/03 13:31:20;;;;;;;10.15;1.58;;;12.90;79.60;;;;;;9177553;19;20047;-68
2023/11/03 13:34:28;;;;;;;10.15;1.60;;;12.90;79.50;;;;;;9176697;19;20021;-68
2023/11/03 13:37:36;;;;;;;12.88;1.70;;;12.90;79.40;;;;;;9176699;19;20612;-68
2023/11/03 13:40:50;;;;;;;13.57;1.58;;;13.00;79.40;;;;;;9177562;19;20014;-68
2023/11/03 13:43:57;;;;;;;;;;;13.00;79.20;;;;;;9179434;19;20022;-70
2023/11/03 13:47:05;;;;;;;14.63;3.40;;;13.00;79.30;;;;;;9175860;19;19929;-68
2023/11/03 13:50:16;;;;;;;11.23;1.80;;;13.00;79.20;;;;;;9178931;19;20035;-68
2023/11/03 13:53:27;;;;;;;9.95;1.77;;;13.00;79.20;;;;;;9176928;19;21004;-68
2023/11/03 13:56:40;;;;;;;13.95;2.13;;;13.00;79.10;;;;;;9172494;19;20019;-68
2023/11/03 13:59:46;;;;;;;10.75;2.10;;;13.00;79.00;;;;;;9178909;19;20013;-68
2023/11/03 14:02:53;;;;;;;13.45;1.85;;;13.00;79.00;;;;;;9182303;19;20486;-67
2023/11/03 14:05:58;;;;;;;13.45;2.00;;;12.90;78.90;;;;;;9186813;19;20007;-68
2023/11/03 14:09:10;;;;;;;15.63;2.28;;;12.90;78.90;;;;;;9186009;19;20020;-69
2023/11/03 14:12:17;;;;;;;16.38;2.08;;;12.90;78.90;;;;;;9183014;19;20038;-68
2023/11/03 14:15:29;;;;;;;12.48;1.77;;;12.90;78.80;;;;;;9185272;19;20015;-69
2023/11/03 14:18:35;;;;;;;10.85;1.80;;;13.00;78.90;;;;;;9187014;19;20014;-68
2023/11/03 14:21:49;;;;;;;12.93;2.20;;;13.00;78.90;;;;;;9186858;19;20010;-70
2023/11/03 14:24:55;;;;;;;17.00;1.80;;;13.00;78.80;;;;;;9184072;19;20119;-69
2023/11/03 14:28:07;;;;;;;5.85;1.10;;;13.00;78.80;;;;;;9186422;19;20011;-70
2023/11/03 14:31:24;;;;;;;10.27;1.33;;;13.00;78.70;;;;;;9185950;19;20107;-69
2023/11/03 14:34:36;;;;;;;9.60;2.72;;;13.00;78.70;;;;;;9184823;19;20391;-68
2023/11/03 14:37:43;;;;;;;13.13;3.53;;;13.00;78.70;;;;;;9181111;19;20082;-69
2023/11/03 14:40:59;;;;;;;13.48;1.73;;;13.00;78.70;;;;;;9184700;19;20021;-67
2023/11/03 14:44:17;;;;;;;6.15;1.58;;;13.00;78.60;;;;;;9175211;19;20019;-70
2023/11/03 14:47:25;;;;;;;9.23;2.15;;;13.00;78.60;;;;;;9176737;19;20017;-69
2023/11/03 14:50:32;;;;;;;11.60;2.33;;;13.00;78.60;;;;;;9185616;19;20022;-68
2023/11/03 14:53:43;;;;;;;17.10;2.20;;;13.00;78.50;;;;;;9183157;19;20015;-69
2023/11/03 14:56:50;;;;;;;10.68;1.92;;;13.00;78.50;;;;;;9180042;19;20011;-69
2023/11/03 15:00:03;;;;;;;7.60;1.70;;;13.00;78.50;;;;;;9169245;19;20078;-72
2023/11/03 15:03:09;;;;;;;12.65;1.85;;;13.00;78.50;;;;;;9169933;19;20026;-70
2023/11/03 15:06:19;;;;;;;15.77;2.10;;;13.00;78.50;;;;;;9166875;19;20010;-68
2023/11/03 15:09:25;;;;;;;17.55;3.72;;;13.00;78.50;;;;;;9168674;19;20411;-68
2023/11/03 15:12:33;;;;;;;15.77;2.50;;;13.00;78.50;;;;;;9167191;19;20010;-69
2023/11/03 15:15:44;;;;;;;8.32;1.90;;;12.90;78.40;;;;;;9164463;19;20102;-68
2023/11/03 15:18:52;;;;;;;8.77;2.08;;;12.90;78.40;;;;;;9169495;19;20476;-73
2023/11/03 15:21:58;;;;;;;10.02;1.45;;;12.90;78.40;;;;;;9168231;19;20021;-68
2023/11/03 15:25:06;;;;;;;9.88;1.65;;;12.90;78.50;;;;;;9168437;19;20018;-71
2023/11/03 15:28:12;;;;;;;16.55;2.20;;;12.90;78.30;;;;;;9169813;19;20056;-70
2023/11/03 15:31:23;;;;;;;11.75;1.60;;;12.80;78.30;;;;;;9169371;19;20018;-68
2023/11/03 15:34:28;;;;;;;6.75;1.52;;;12.80;78.30;;;;;;9168402;19;20055;-71
2023/11/03 15:37:40;;;;;;;15.13;2.13;;;12.80;78.20;;;;;;9165435;19;20023;-68
2023/11/03 15:40:47;;;;;;;9.35;1.70;;;12.80;78.30;;;;;;9168739;19;20018;-70
2023/11/03 15:43:55;;;;;;;11.32;1.90;;;12.70;78.30;;;;;;9165759;19;20010;-69
2023/11/03 15:47:03;;;;;;;9.85;1.80;;;12.70;78.30;;;;;;9166285;19;20494;-68
2023/11/03 15:50:12;;;;;;;9.98;1.30;;;12.70;78.30;;;;;;9165904;19;20396;-68
2023/11/03 15:53:18;;;;;;;9.93;2.00;;;12.60;78.10;;;;;;9165972;19;20010;-68
2023/11/03 15:56:25;;;;;;;11.18;1.50;;;12.60;78.10;;;;;;9161649;19;20487;-69
2023/11/03 15:59:31;;;;;;;5.47;1.90;;;12.60;78.10;;;;;;9165980;19;20052;-69
2023/11/03 16:02:42;;;;;;;4.22;1.25;;;12.60;78.10;;;;;;9160581;19;20025;-69
2023/11/03 16:05:50;;;;;;;17.35;1.85;;;12.50;78.00;;;;;;9162685;19;20039;-71
2023/11/03 16:08:57;;;;;;;9.65;2.38;;;12.50;78.00;;;;;;9163415;19;20017;-68
2023/11/03 16:12:03;;;;;;;16.92;1.80;;;12.40;77.90;;;;;;9163607;19;20026;-70
2023/11/03 16:15:11;;;;;;;12.90;1.83;;;12.40;77.90;;;;;;9159667;19;21195;-70
2023/11/03 16:18:21;;;;;;;10.55;1.63;;;12.30;77.90;;;;;;9159307;19;20022;-72